createdAt,value
2022-12-18T00:01:34.360Z,61.95
2022-12-18T00:06:03.249Z,70.15
2022-12-18T00:08:10.808Z,68.93
2022-12-18T00:10:28.857Z,72.53
2022-12-18T00:12:42.787Z,67.63
2022-12-18T00:14:52.194Z,54.80
2022-12-18T00:17:06.663Z,64.15
2022-12-18T00:19:12.904Z,75.75
2022-12-18T00:21:26.137Z,67.93
2022-12-18T00:23:37.029Z,69.47
2022-12-18T00:25:52.307Z,72.90
2022-12-18T00:27:58.264Z,77.72
2022-12-18T00:30:03.015Z,79.50
2022-12-18T00:32:07.773Z,84.93
2022-12-18T00:34:13.871Z,68.97
2022-12-18T00:36:20.462Z,73.68
2022-12-18T00:38:25.166Z,76.88
2022-12-18T00:40:29.797Z,76.28
2022-12-18T00:42:51.307Z,66.10
2022-12-18T00:45:01.183Z,71.22
2022-12-18T00:47:23.002Z,74.82
2022-12-18T00:49:35.102Z,60.53
2022-12-18T00:51:42.816Z,88.10
2022-12-18T00:54:00.737Z,69.30
2022-12-18T00:56:06.965Z,88.05
2022-12-18T00:58:25.084Z,88.43
2022-12-18T01:00:35.149Z,70.40
2022-12-18T01:02:58.454Z,80.13
2022-12-18T01:07:25.328Z,73.57
2022-12-18T01:09:30.023Z,67.63
2022-12-18T01:11:34.979Z,100.60
2022-12-18T01:13:42.496Z,80.72
2022-12-18T01:15:52.589Z,63.88
2022-12-18T01:18:09.939Z,85.43
2022-12-18T01:20:23.660Z,84.10
2022-12-18T01:22:33.157Z,78.03
2022-12-18T01:24:44.627Z,94.97
2022-12-18T01:26:52.432Z,85.53
2022-12-18T01:29:05.593Z,84.63
2022-12-18T01:31:20.167Z,83.57
2022-12-18T01:33:34.512Z,90.85
2022-12-18T01:35:47.180Z,90.38
2022-12-18T01:38:04.189Z,89.72
2022-12-18T01:40:22.215Z,82.70
2022-12-18T01:42:34.229Z,89.85
2022-12-18T01:45:29.764Z,89.20
2022-12-18T01:47:50.312Z,76.45
2022-12-18T01:49:59.061Z,64.53
2022-12-18T01:52:04.078Z,70.20
2022-12-18T01:54:08.806Z,84.82
2022-12-18T01:56:17.015Z,67.43
2022-12-18T01:58:22.016Z,89.63
2022-12-18T02:00:27.904Z,66.72
2022-12-18T02:02:33.413Z,82.07
2022-12-18T02:04:43.918Z,73.97
2022-12-18T02:06:55.153Z,81.93
2022-12-18T02:09:07.759Z,59.92
2022-12-18T02:11:28.349Z,56.33
2022-12-18T02:13:40.679Z,63.35
2022-12-18T02:15:59.242Z,94.35
2022-12-18T02:18:17.008Z,84.30
2022-12-18T02:20:29.793Z,79.47
2022-12-18T02:22:42.176Z,82.05
2022-12-18T02:25:00.698Z,78.22
2022-12-18T02:27:13.964Z,80.70
2022-12-18T02:29:30.461Z,72.68
2022-12-18T02:31:45.332Z,72.28
2022-12-18T02:34:01.293Z,86.55
2022-12-18T02:36:15.997Z,72.28
2022-12-18T02:38:37.523Z,67.70
2022-12-18T02:40:50.613Z,79.82
2022-12-18T02:45:07.473Z,46.05
2022-12-18T02:47:14.280Z,74.35
2022-12-18T02:49:28.696Z,75.28
2022-12-18T02:51:37.152Z,58.88
2022-12-18T02:53:47.650Z,61.25
2022-12-18T02:56:03.208Z,47.30
2022-12-18T02:58:18.297Z,65.25
2022-12-18T03:00:25.727Z,58.67
2022-12-18T03:02:36.430Z,47.40
2022-12-18T03:04:47.129Z,109.18
2022-12-18T03:06:58.498Z,55.83
2022-12-18T03:09:18.383Z,54.67
2022-12-18T03:11:50.435Z,60.85
2022-12-18T03:14:07.031Z,50.00
2022-12-18T03:16:24.968Z,44.80
2022-12-18T03:18:36.695Z,59.72
2022-12-18T03:20:56.147Z,57.72
2022-12-18T03:23:07.506Z,75.40
2022-12-18T03:25:20.057Z,42.88
2022-12-18T03:27:28.124Z,77.72
2022-12-18T03:29:51.176Z,51.88
2022-12-18T03:32:04.866Z,70.22
2022-12-18T03:34:15.907Z,67.07
2022-12-18T03:36:28.516Z,52.30
2022-12-18T03:40:48.415Z,56.50
2022-12-18T03:42:56.391Z,53.88
2022-12-18T03:45:13.028Z,54.25
2022-12-18T03:47:24.505Z,74.47
2022-12-18T03:49:34.860Z,52.78
2022-12-18T03:51:44.834Z,66.80
2022-12-18T03:53:57.240Z,55.72
2022-12-18T03:56:03.450Z,59.42
2022-12-18T03:58:08.991Z,47.15
2022-12-18T04:00:18.026Z,69.35
2022-12-18T04:02:23.763Z,71.28
2022-12-18T04:04:43.261Z,71.72
2022-12-18T04:07:04.459Z,55.28
2022-12-18T04:09:13.413Z,65.90
2022-12-18T04:11:26.012Z,63.13
2022-12-18T04:13:38.599Z,67.72
2022-12-18T04:15:54.553Z,57.80
2022-12-18T04:18:01.916Z,60.42
2022-12-18T04:20:07.472Z,67.53
2022-12-18T04:22:27.056Z,65.63
2022-12-18T04:24:34.102Z,55.38
2022-12-18T04:26:48.312Z,51.63
2022-12-18T04:29:07.802Z,50.35
2022-12-18T04:31:26.291Z,63.88
2022-12-18T04:33:30.982Z,53.85
2022-12-18T04:35:35.549Z,64.32
2022-12-18T04:37:40.315Z,60.58
2022-12-18T04:39:45.395Z,60.90
2022-12-18T04:41:58.681Z,46.85
2022-12-18T04:44:07.128Z,50.55
2022-12-18T04:46:24.982Z,62.55
2022-12-18T04:48:34.043Z,62.67
2022-12-18T04:50:44.833Z,47.65
2022-12-18T04:52:57.835Z,39.47
2022-12-18T04:57:25.097Z,50.85
2022-12-18T04:59:30.732Z,54.78
2022-12-18T05:01:35.556Z,54.38
2022-12-18T05:03:43.678Z,48.25
2022-12-18T05:05:48.855Z,61.28
2022-12-18T05:07:54.132Z,53.80
2022-12-18T05:09:58.969Z,47.85
2022-12-18T05:12:10.302Z,45.95
2022-12-18T05:14:26.060Z,48.17
2022-12-18T05:16:32.957Z,54.47
2022-12-18T05:18:44.309Z,56.83
2022-12-18T05:20:54.262Z,47.20
2022-12-18T05:23:14.954Z,49.83
2022-12-18T05:25:20.801Z,53.95
2022-12-18T05:27:25.507Z,41.60
2022-12-18T05:29:30.552Z,51.88
2022-12-18T05:31:39.485Z,54.38
2022-12-18T05:33:44.642Z,52.72
2022-12-18T05:35:57.202Z,45.63
2022-12-18T05:38:11.521Z,58.40
2022-12-18T05:40:17.330Z,54.38
2022-12-18T05:42:22.081Z,52.30
2022-12-18T05:44:26.921Z,61.70
2022-12-18T05:46:31.967Z,42.38
2022-12-18T05:48:39.020Z,42.08
2022-12-18T05:50:47.630Z,51.90
2022-12-18T05:52:59.682Z,51.50
2022-12-18T05:55:04.584Z,58.92
2022-12-18T05:57:25.677Z,46.30
2022-12-18T05:59:43.556Z,42.70
2022-12-18T06:01:59.537Z,51.95
2022-12-18T06:04:12.770Z,51.83
2022-12-18T06:06:25.969Z,42.13
2022-12-18T06:08:41.528Z,47.42
2022-12-18T06:10:59.055Z,39.75
2022-12-18T06:13:08.793Z,38.20
2022-12-18T06:15:13.852Z,41.25
2022-12-18T06:17:18.910Z,45.08
2022-12-18T06:19:24.479Z,42.28
2022-12-18T06:21:29.500Z,35.15
2022-12-18T06:23:37.417Z,41.30
2022-12-18T06:25:42.974Z,38.35
2022-12-18T06:27:47.775Z,41.83
2022-12-18T06:29:52.525Z,47.70
2022-12-18T06:31:57.396Z,22.52
2022-12-18T06:34:02.213Z,36.97
2022-12-18T06:36:10.532Z,24.15
2022-12-18T06:38:15.280Z,32.25
2022-12-18T06:40:22.832Z,29.60
2022-12-18T06:42:27.554Z,33.67
2022-12-18T06:44:32.231Z,34.03
2022-12-18T06:46:36.925Z,31.67
2022-12-18T06:48:41.826Z,39.90
2022-12-18T06:50:46.387Z,34.55
2022-12-18T06:52:51.099Z,32.22
2022-12-18T06:55:11.009Z,24.30
2022-12-18T06:57:18.169Z,35.42
2022-12-18T06:59:23.205Z,45.03
2022-12-18T07:01:29.480Z,40.78
2022-12-18T07:03:34.615Z,26.40
2022-12-18T07:05:43.766Z,38.70
2022-12-18T07:07:54.326Z,37.90
2022-12-18T07:10:15.305Z,33.83
2022-12-18T07:12:23.834Z,32.00
2022-12-18T07:14:28.859Z,26.45
2022-12-18T07:16:34.984Z,24.08
2022-12-18T07:18:52.845Z,21.95
2022-12-18T07:21:00.125Z,20.20
2022-12-18T07:23:12.181Z,23.90
2022-12-18T07:25:17.057Z,18.53
2022-12-18T07:27:24.510Z,25.42
2022-12-18T07:29:29.849Z,29.20
2022-12-18T07:31:34.784Z,26.20
2022-12-18T07:33:45.671Z,20.63
2022-12-18T07:35:54.084Z,17.98
2022-12-18T07:38:07.939Z,14.50
2022-12-18T07:40:14.447Z,25.88
2022-12-18T07:42:31.674Z,35.60
2022-12-18T07:44:44.365Z,30.00
2022-12-18T07:46:49.058Z,23.92
2022-12-18T07:48:53.696Z,19.10
2022-12-18T07:51:03.947Z,27.27
2022-12-18T07:53:08.582Z,27.48
2022-12-18T07:55:13.168Z,30.88
2022-12-18T07:57:41.853Z,25.27
2022-12-18T07:59:46.432Z,28.80
2022-12-18T08:01:51.335Z,17.77
2022-12-18T08:03:56.061Z,26.77
2022-12-18T08:06:03.349Z,29.77
2022-12-18T08:08:08.392Z,22.60
2022-12-18T08:10:13.420Z,27.73
2022-12-18T08:12:18.000Z,36.85
2022-12-18T08:14:22.624Z,16.48
2022-12-18T08:16:30.024Z,22.10
2022-12-18T08:18:40.946Z,21.75
2022-12-18T08:20:45.584Z,28.40
2022-12-18T08:22:50.257Z,28.58
2022-12-18T08:24:54.981Z,20.88
2022-12-18T08:27:21.217Z,32.50
2022-12-18T08:29:24.685Z,22.15
2022-12-18T08:31:34.104Z,30.40
2022-12-18T08:33:39.465Z,23.95
2022-12-18T08:35:46.115Z,24.02
2022-12-18T08:37:51.095Z,19.05
2022-12-18T08:39:55.929Z,25.77
2022-12-18T08:42:13.112Z,20.70
2022-12-18T08:44:45.020Z,21.27
2022-12-18T08:46:52.285Z,27.52
2022-12-18T08:48:57.690Z,31.85
2022-12-18T08:51:03.353Z,23.08
2022-12-18T08:53:08.197Z,26.08
2022-12-18T08:55:13.311Z,25.25
2022-12-18T08:57:18.132Z,29.02
2022-12-18T08:59:24.363Z,23.90
2022-12-18T09:01:29.569Z,31.80
2022-12-18T09:03:37.514Z,27.67
2022-12-18T09:05:42.540Z,26.67
2022-12-18T09:07:47.226Z,24.95
2022-12-18T09:09:59.698Z,35.20
2022-12-18T09:12:05.060Z,25.45
2022-12-18T09:14:11.212Z,23.20
2022-12-18T09:16:16.070Z,30.90
2022-12-18T09:18:22.436Z,32.80
2022-12-18T09:20:31.033Z,31.83
2022-12-18T09:22:35.873Z,24.77
2022-12-18T09:24:40.547Z,22.60
2022-12-18T09:26:46.926Z,27.25
2022-12-18T09:28:52.220Z,26.45
2022-12-18T09:31:00.338Z,16.88
2022-12-18T09:33:05.116Z,19.15
2022-12-18T09:35:12.869Z,28.83
2022-12-18T09:37:20.365Z,29.35
2022-12-18T09:39:25.161Z,29.08
2022-12-18T09:41:43.569Z,21.80
2022-12-18T09:43:50.930Z,27.35
2022-12-18T09:46:04.055Z,21.92
2022-12-18T09:48:10.033Z,26.38
2022-12-18T09:50:25.328Z,19.17
2022-12-18T09:52:41.717Z,27.10
2022-12-18T09:54:59.769Z,30.75
2022-12-18T09:57:04.568Z,21.15
2022-12-18T09:59:09.469Z,20.27
2022-12-18T10:01:14.986Z,25.35
2022-12-18T10:03:20.043Z,25.50
2022-12-18T10:05:44.591Z,31.95
2022-12-18T10:08:14.515Z,31.45
2022-12-18T10:10:29.862Z,22.70
2022-12-18T10:12:39.403Z,24.67
2022-12-18T10:14:49.198Z,26.42
2022-12-18T10:17:01.957Z,26.92
2022-12-18T10:19:18.037Z,28.55
2022-12-18T10:21:25.704Z,18.90
2022-12-18T10:23:37.120Z,26.40
2022-12-18T10:25:59.531Z,25.05
2022-12-18T10:28:18.414Z,23.42
2022-12-18T10:30:24.850Z,26.73
2022-12-18T10:32:30.795Z,26.00
2022-12-18T10:34:46.914Z,17.90
2022-12-18T10:36:51.955Z,26.88
2022-12-18T10:39:19.921Z,28.20
2022-12-18T10:41:31.917Z,19.65
2022-12-18T10:43:37.646Z,16.70
2022-12-18T10:45:42.731Z,32.22
2022-12-18T10:47:50.596Z,26.88
2022-12-18T10:49:57.049Z,39.40
2022-12-18T10:52:10.161Z,28.95
2022-12-18T10:54:22.667Z,31.80
2022-12-18T10:56:29.450Z,22.67
2022-12-18T10:58:36.108Z,29.75
2022-12-18T11:00:41.396Z,26.25
2022-12-18T11:02:46.301Z,22.60
2022-12-18T11:04:54.929Z,30.13
2022-12-18T11:07:01.936Z,28.33
2022-12-18T11:09:14.479Z,28.08
2022-12-18T11:11:24.734Z,26.77
2022-12-18T11:13:31.645Z,28.05
2022-12-18T11:15:37.302Z,34.55
2022-12-18T11:17:43.015Z,22.60
2022-12-18T11:19:47.804Z,31.75
2022-12-18T11:21:52.895Z,33.45
2022-12-18T11:23:59.072Z,25.52
2022-12-18T11:26:11.757Z,29.88
2022-12-18T11:32:54.442Z,28.63
2022-12-18T11:35:04.126Z,22.00
2022-12-18T11:37:14.284Z,29.15
2022-12-18T11:39:24.125Z,26.40
2022-12-18T11:41:53.563Z,36.25
2022-12-18T11:44:04.747Z,31.05
2022-12-18T11:46:19.421Z,29.33
2022-12-18T11:48:27.813Z,29.83
2022-12-18T11:50:38.353Z,21.75
2022-12-18T11:52:44.721Z,27.80
2022-12-18T11:54:49.415Z,31.30
2022-12-18T11:56:58.043Z,29.60
2022-12-18T11:59:14.262Z,31.98
2022-12-18T12:01:29.937Z,29.58
2022-12-18T12:03:50.058Z,31.52
2022-12-18T12:06:11.588Z,25.95
2022-12-18T12:08:20.336Z,36.83
2022-12-18T12:10:38.694Z,27.23
2022-12-18T12:13:03.191Z,30.45
2022-12-18T12:15:22.520Z,32.40
2022-12-18T12:17:33.948Z,34.25
2022-12-18T12:19:44.994Z,18.70
2022-12-18T12:21:53.879Z,25.73
2022-12-18T12:24:18.560Z,31.67
2022-12-18T12:26:37.793Z,21.70
2022-12-18T12:29:30.633Z,25.50
2022-12-18T12:32:12.632Z,27.38
2022-12-18T12:34:26.903Z,21.52
2022-12-18T12:36:38.383Z,28.40
2022-12-18T12:38:51.570Z,34.17
2022-12-18T12:41:03.153Z,30.67
2022-12-18T12:43:14.020Z,25.08
2022-12-18T12:45:23.247Z,26.25
2022-12-18T12:47:39.283Z,30.23
2022-12-18T12:49:48.713Z,39.85
2022-12-18T12:52:01.663Z,36.35
2022-12-18T12:54:16.837Z,30.30
2022-12-18T12:56:27.689Z,25.50
2022-12-18T12:58:40.944Z,30.63
2022-12-18T13:00:53.609Z,30.23
2022-12-18T13:03:07.866Z,35.03
2022-12-18T13:05:20.728Z,35.70
2022-12-18T13:07:30.936Z,33.75
2022-12-18T13:09:37.279Z,36.83
2022-12-18T13:12:00.247Z,30.50
2022-12-18T13:14:05.302Z,32.35
2022-12-18T13:16:11.784Z,32.65
2022-12-18T13:18:23.571Z,27.92
2022-12-18T13:20:53.782Z,37.10
2022-12-18T13:23:40.081Z,34.10
2022-12-18T13:25:58.743Z,30.95
2022-12-18T13:28:10.710Z,35.35
2022-12-18T13:31:03.635Z,36.03
2022-12-18T13:34:25.611Z,34.40
2022-12-18T13:36:55.919Z,35.05
2022-12-18T13:39:34.240Z,36.42
2022-12-18T13:41:40.320Z,43.25
2022-12-18T13:43:47.425Z,25.15
2022-12-18T13:45:54.348Z,37.65
2022-12-18T13:48:00.362Z,39.80
2022-12-18T13:50:09.127Z,29.30
2022-12-18T13:52:27.690Z,28.40
2022-12-18T13:54:43.980Z,34.67
2022-12-18T13:56:50.424Z,39.45
2022-12-18T13:59:17.628Z,44.42
2022-12-18T14:01:26.857Z,37.85
2022-12-18T14:03:32.962Z,33.25
2022-12-18T14:05:43.423Z,48.70
2022-12-18T14:11:19.460Z,41.92
2022-12-18T14:14:33.534Z,41.58
2022-12-18T14:16:38.669Z,43.10
2022-12-18T14:18:49.420Z,54.45
2022-12-18T14:20:55.502Z,38.88
2022-12-18T14:23:03.722Z,29.20
2022-12-18T14:25:26.806Z,30.27
2022-12-18T14:27:31.775Z,45.67
2022-12-18T14:29:38.814Z,36.25
2022-12-18T14:31:43.400Z,35.22
2022-12-18T14:33:48.060Z,28.33
2022-12-18T14:36:30.507Z,37.45
2022-12-18T14:38:47.549Z,36.35
2022-12-18T14:40:56.612Z,33.65
2022-12-18T14:43:10.124Z,31.10
2022-12-18T14:46:12.444Z,26.63
2022-12-18T14:48:41.733Z,32.05
2022-12-18T14:51:10.570Z,26.67
2022-12-18T14:53:32.752Z,40.30
2022-12-18T14:55:55.313Z,34.53
2022-12-18T15:01:10.644Z,41.78
2022-12-18T15:04:07.177Z,38.35
2022-12-18T15:06:40.973Z,42.65
2022-12-18T15:08:46.511Z,46.00
2022-12-18T15:10:53.702Z,42.58
2022-12-18T15:13:12.603Z,42.28
2022-12-18T15:15:50.959Z,39.55
2022-12-18T15:18:55.465Z,26.20
2022-12-18T15:26:49.495Z,35.92
2022-12-18T15:29:15.891Z,36.63
2022-12-18T15:32:00.007Z,34.30
2022-12-18T15:34:40.491Z,34.67
2022-12-18T15:36:45.994Z,36.53
2022-12-18T15:39:24.360Z,32.40
2022-12-18T15:41:45.938Z,41.33
2022-12-18T15:44:20.622Z,22.88
2022-12-18T15:46:27.888Z,40.45
2022-12-18T15:48:32.776Z,40.00
2022-12-18T15:51:01.982Z,34.75
2022-12-18T15:55:47.508Z,32.75
2022-12-18T15:58:02.678Z,33.05
2022-12-18T16:00:15.426Z,31.52
2022-12-18T16:02:24.309Z,37.40
2022-12-18T16:05:05.287Z,39.40
2022-12-18T16:07:23.173Z,33.70
2022-12-18T16:10:02.373Z,34.60
2022-12-18T16:12:08.327Z,33.53
2022-12-18T16:14:21.351Z,36.20
2022-12-18T16:16:29.779Z,31.92
2022-12-18T16:18:36.260Z,29.85
2022-12-18T16:20:42.556Z,33.33
2022-12-18T16:22:48.870Z,42.55
2022-12-18T16:24:54.474Z,28.67
2022-12-18T16:27:00.862Z,33.00
2022-12-18T16:29:05.523Z,33.15
2022-12-18T16:31:39.284Z,35.38
2022-12-18T16:33:46.648Z,35.53
2022-12-18T16:36:15.076Z,38.30
2022-12-18T16:38:19.764Z,33.35
2022-12-18T16:40:24.839Z,26.70
2022-12-18T16:42:29.537Z,29.23
2022-12-18T16:44:34.564Z,35.05
2022-12-18T16:46:40.301Z,29.67
2022-12-18T16:48:47.628Z,31.50
2022-12-18T16:50:52.324Z,35.92
2022-12-18T16:52:57.140Z,30.65
2022-12-18T16:55:01.966Z,31.08
2022-12-18T16:57:07.912Z,28.40
2022-12-18T16:59:14.810Z,32.80
2022-12-18T17:01:20.482Z,31.50
2022-12-18T17:03:25.372Z,28.65
2022-12-18T17:05:32.700Z,34.63
2022-12-18T17:07:41.782Z,30.13
2022-12-18T17:09:46.477Z,35.63
2022-12-18T17:11:51.285Z,28.45
2022-12-18T17:13:56.118Z,29.02
2022-12-18T17:16:06.728Z,35.63
2022-12-18T17:18:11.524Z,30.08
2022-12-18T17:20:16.204Z,34.20
2022-12-18T17:22:24.076Z,31.60
2022-12-18T17:24:34.394Z,34.58
2022-12-18T17:26:40.307Z,37.80
2022-12-18T17:28:45.414Z,30.10
2022-12-18T17:30:50.181Z,39.22
2022-12-18T17:33:42.157Z,35.53
2022-12-18T17:35:47.425Z,25.77
2022-12-18T17:37:55.716Z,36.90
2022-12-18T17:40:00.484Z,32.58
2022-12-18T17:45:05.158Z,33.08
2022-12-18T17:48:00.628Z,34.92
2022-12-18T17:50:10.384Z,41.55
2022-12-18T17:52:15.167Z,42.35
2022-12-18T17:54:22.464Z,37.50
2022-12-18T17:56:28.030Z,38.60
2022-12-18T17:58:34.092Z,30.92
2022-12-18T18:03:41.761Z,27.67
2022-12-18T18:05:47.583Z,33.47
2022-12-18T18:08:34.911Z,41.42
2022-12-18T18:11:48.286Z,34.17
2022-12-18T18:14:04.665Z,32.83
2022-12-18T18:16:10.666Z,39.97
2022-12-18T18:18:15.687Z,34.20
2022-12-18T18:20:22.947Z,36.65
2022-12-18T18:22:27.829Z,33.78
2022-12-18T18:24:33.246Z,32.58
2022-12-18T18:32:40.777Z,32.58
2022-12-18T18:34:46.057Z,35.65
2022-12-18T18:36:50.849Z,43.00
2022-12-18T19:14:48.030Z,38.90
2022-12-18T19:17:11.136Z,35.92
2022-12-18T19:21:54.221Z,41.65
2022-12-18T19:24:42.445Z,40.85
2022-12-18T19:32:49.094Z,34.35
2022-12-18T19:34:53.927Z,47.83
2022-12-18T19:36:59.882Z,42.38
2022-12-18T19:39:05.313Z,47.20
2022-12-18T19:41:10.550Z,37.42
2022-12-18T19:43:15.609Z,39.70
2022-12-18T19:45:23.816Z,36.17
2022-12-18T19:51:20.266Z,40.33
2022-12-18T19:59:45.734Z,45.58
2022-12-18T20:02:41.091Z,35.75
2022-12-18T20:07:42.595Z,43.70
2022-12-18T20:10:57.666Z,30.63
2022-12-18T20:13:47.744Z,43.80
2022-12-18T20:15:53.002Z,36.95
2022-12-18T20:18:00.278Z,44.50
2022-12-18T20:20:05.148Z,52.22
2022-12-18T20:22:10.877Z,35.28
2022-12-18T20:24:15.545Z,45.65
2022-12-18T20:26:20.663Z,41.22
2022-12-18T20:28:26.696Z,44.58
2022-12-18T20:30:31.766Z,41.50
2022-12-18T20:32:37.199Z,41.55
2022-12-18T20:34:44.739Z,42.90
2022-12-18T20:36:51.098Z,46.58
2022-12-18T20:39:02.640Z,40.05
2022-12-18T20:41:20.198Z,51.42
2022-12-18T20:43:31.929Z,46.17
2022-12-18T20:45:40.842Z,33.20
2022-12-18T20:47:55.793Z,46.60
2022-12-18T20:50:07.426Z,50.40
2022-12-18T20:52:17.871Z,44.90
2022-12-18T20:54:31.822Z,46.92
2022-12-18T20:56:46.894Z,46.65
2022-12-18T20:58:54.900Z,49.10
2022-12-18T21:01:07.510Z,47.85
2022-12-18T21:03:16.602Z,48.95
2022-12-18T21:05:32.254Z,43.53
2022-12-18T21:07:38.208Z,55.00
2022-12-18T21:09:43.004Z,49.40
2022-12-18T21:12:00.267Z,35.53
2022-12-18T21:14:06.328Z,54.05
2022-12-18T21:16:11.234Z,58.10
2022-12-18T21:18:16.278Z,56.70
2022-12-18T21:20:24.267Z,49.03
2022-12-18T21:22:29.718Z,58.38
2022-12-18T21:24:34.877Z,47.53
2022-12-18T21:26:45.238Z,54.03
2022-12-18T21:28:51.310Z,58.28
2022-12-18T21:30:56.230Z,62.85
2022-12-18T21:33:01.117Z,58.30
2022-12-18T21:35:05.942Z,58.53
2022-12-18T21:37:13.246Z,56.28
2022-12-18T21:39:18.988Z,50.00
2022-12-18T21:41:42.357Z,56.65
2022-12-18T21:43:59.782Z,58.50
2022-12-18T21:46:04.546Z,54.97
2022-12-18T21:48:09.429Z,51.15
2022-12-18T21:50:14.477Z,38.88
2022-12-18T21:52:31.694Z,63.80
2022-12-18T21:54:37.750Z,69.47
2022-12-18T21:56:47.224Z,63.08
2022-12-18T21:58:56.943Z,69.13
2022-12-18T22:01:02.190Z,64.03
2022-12-18T22:03:18.622Z,73.25
2022-12-18T22:05:23.884Z,67.75
2022-12-18T22:07:31.779Z,55.40
2022-12-18T22:09:36.725Z,55.10
2022-12-18T22:11:41.756Z,63.55
2022-12-18T22:13:47.912Z,52.65
2022-12-18T22:15:52.773Z,70.55
2022-12-18T22:18:00.085Z,66.65
2022-12-18T22:20:05.127Z,66.03
2022-12-18T22:22:10.040Z,59.88
2022-12-18T22:24:19.604Z,62.50
2022-12-18T22:26:27.991Z,65.68
2022-12-18T22:28:46.528Z,65.00
2022-12-18T22:30:59.031Z,70.80
2022-12-18T22:33:04.540Z,67.22
2022-12-18T22:35:27.803Z,69.18
2022-12-18T22:37:32.756Z,65.20
2022-12-18T22:39:40.315Z,66.90
2022-12-18T22:41:45.446Z,70.10
2022-12-18T22:43:50.135Z,69.75
2022-12-18T22:45:55.541Z,47.25
2022-12-18T22:48:00.672Z,66.40
2022-12-18T22:50:05.904Z,71.00
2022-12-18T22:52:12.200Z,63.70
2022-12-18T22:54:18.736Z,71.68
2022-12-18T22:56:26.469Z,76.70
2022-12-18T22:58:31.552Z,57.15
2022-12-18T23:00:36.269Z,78.32
2022-12-18T23:02:41.071Z,55.58
2022-12-18T23:04:45.979Z,81.57
2022-12-18T23:06:50.657Z,77.07
2022-12-18T23:08:56.281Z,61.75
2022-12-18T23:11:01.234Z,75.05
2022-12-18T23:13:08.556Z,76.57
2022-12-18T23:15:13.716Z,71.72
2022-12-18T23:17:21.109Z,64.32
2022-12-18T23:19:26.435Z,70.90
2022-12-18T23:21:31.975Z,83.38
2022-12-18T23:23:38.080Z,87.80
2022-12-18T23:25:42.898Z,69.22
2022-12-18T23:27:47.519Z,76.60
2022-12-18T23:29:54.693Z,77.72
2022-12-18T23:32:00.959Z,77.72
2022-12-18T23:34:06.411Z,84.35
2022-12-18T23:36:13.625Z,76.30
2022-12-18T23:38:18.316Z,95.22
2022-12-18T23:40:23.085Z,72.45
2022-12-18T23:42:27.903Z,78.50
2022-12-18T23:44:32.803Z,89.20
2022-12-18T23:46:40.333Z,73.72
2022-12-18T23:48:45.143Z,68.63
2022-12-18T23:50:49.851Z,71.43
2022-12-18T23:52:54.765Z,83.28
2022-12-18T23:54:59.691Z,65.78
2022-12-18T23:57:05.158Z,69.85
2022-12-18T23:59:09.779Z,69.68
